sensor_id;sensor_type;location;lat;lon;timestamp;P1;durP1;ratioP1;P2;durP2;ratioP2
22634;SDS011;11484;50.858;4.384;2023-08-12T00:01:18;6.90;;;3.53;;
22634;SDS011;11484;50.858;4.384;2023-08-12T00:03:46;8.65;;;4.38;;
22634;SDS011;11484;50.858;4.384;2023-08-12T00:06:13;5.45;;;3.42;;
22634;SDS011;11484;50.858;4.384;2023-08-12T00:08:38;6.35;;;3.25;;
22634;SDS011;11484;50.858;4.384;2023-08-12T00:11:04;5.05;;;3.25;;
22634;SDS011;11484;50.858;4.384;2023-08-12T00:13:30;7.47;;;4.05;;
22634;SDS011;11484;50.858;4.384;2023-08-12T00:15:55;5.80;;;3.25;;
22634;SDS011;11484;50.858;4.384;2023-08-12T00:18:22;17.33;;;7.57;;
22634;SDS011;11484;50.858;4.384;2023-08-12T00:20:48;6.63;;;3.72;;
22634;SDS011;11484;50.858;4.384;2023-08-12T00:23:13;6.20;;;3.35;;
22634;SDS011;11484;50.858;4.384;2023-08-12T00:25:39;3.60;;;2.70;;
22634;SDS011;11484;50.858;4.384;2023-08-12T00:28:05;7.63;;;3.80;;
22634;SDS011;11484;50.858;4.384;2023-08-12T00:30:30;7.55;;;3.38;;
22634;SDS011;11484;50.858;4.384;2023-08-12T00:32:56;6.38;;;3.42;;
22634;SDS011;11484;50.858;4.384;2023-08-12T00:35:23;5.50;;;3.20;;
22634;SDS011;11484;50.858;4.384;2023-08-12T00:37:48;7.55;;;3.78;;
22634;SDS011;11484;50.858;4.384;2023-08-12T00:40:14;6.53;;;3.50;;
22634;SDS011;11484;50.858;4.384;2023-08-12T00:42:40;6.15;;;3.67;;
22634;SDS011;11484;50.858;4.384;2023-08-12T00:45:07;9.02;;;3.33;;
22634;SDS011;11484;50.858;4.384;2023-08-12T00:47:35;7.72;;;4.38;;
22634;SDS011;11484;50.858;4.384;2023-08-12T00:50:01;7.78;;;4.13;;
22634;SDS011;11484;50.858;4.384;2023-08-12T00:52:27;6.53;;;3.97;;
22634;SDS011;11484;50.858;4.384;2023-08-12T00:54:53;7.57;;;3.88;;
22634;SDS011;11484;50.858;4.384;2023-08-12T00:57:20;11.43;;;4.20;;
22634;SDS011;11484;50.858;4.384;2023-08-12T00:59:45;8.95;;;3.78;;
22634;SDS011;11484;50.858;4.384;2023-08-12T01:02:11;7.68;;;3.75;;
22634;SDS011;11484;50.858;4.384;2023-08-12T01:04:39;10.40;;;4.35;;
22634;SDS011;11484;50.858;4.384;2023-08-12T01:07:05;8.52;;;4.18;;
22634;SDS011;11484;50.858;4.384;2023-08-12T01:09:30;9.30;;;4.68;;
22634;SDS011;11484;50.858;4.384;2023-08-12T01:17:06;8.10;;;4.43;;
22634;SDS011;11484;50.858;4.384;2023-08-12T01:19:35;7.88;;;4.50;;
22634;SDS011;11484;50.858;4.384;2023-08-12T01:22:02;14.38;;;4.97;;
22634;SDS011;11484;50.858;4.384;2023-08-12T01:24:36;9.02;;;5.32;;
22634;SDS011;11484;50.858;4.384;2023-08-12T01:27:06;7.28;;;4.20;;
22634;SDS011;11484;50.858;4.384;2023-08-12T01:29:34;6.75;;;4.15;;
22634;SDS011;11484;50.858;4.384;2023-08-12T01:32:12;7.85;;;4.15;;
22634;SDS011;11484;50.858;4.384;2023-08-12T01:35:02;7.43;;;4.40;;
22634;SDS011;11484;50.858;4.384;2023-08-12T01:37:35;7.82;;;4.43;;
22634;SDS011;11484;50.858;4.384;2023-08-12T01:40:03;12.05;;;4.65;;
22634;SDS011;11484;50.858;4.384;2023-08-12T01:42:30;13.23;;;4.65;;
22634;SDS011;11484;50.858;4.384;2023-08-12T01:44:57;7.22;;;4.30;;
22634;SDS011;11484;50.858;4.384;2023-08-12T01:47:24;6.43;;;4.78;;
22634;SDS011;11484;50.858;4.384;2023-08-12T01:49:50;7.18;;;4.47;;
22634;SDS011;11484;50.858;4.384;2023-08-12T01:52:15;7.68;;;4.68;;
22634;SDS011;11484;50.858;4.384;2023-08-12T01:54:41;9.65;;;4.78;;
22634;SDS011;11484;50.858;4.384;2023-08-12T01:57:07;8.43;;;4.97;;
22634;SDS011;11484;50.858;4.384;2023-08-12T01:59:37;8.40;;;5.68;;
22634;SDS011;11484;50.858;4.384;2023-08-12T02:02:03;8.50;;;4.90;;
22634;SDS011;11484;50.858;4.384;2023-08-12T02:04:29;10.13;;;4.30;;
22634;SDS011;11484;50.858;4.384;2023-08-12T02:06:55;6.85;;;4.68;;
22634;SDS011;11484;50.858;4.384;2023-08-12T02:09:21;8.45;;;4.95;;
22634;SDS011;11484;50.858;4.384;2023-08-12T02:11:48;9.18;;;4.70;;
22634;SDS011;11484;50.858;4.384;2023-08-12T02:14:14;8.55;;;4.35;;
22634;SDS011;11484;50.858;4.384;2023-08-12T02:16:40;9.95;;;4.47;;
22634;SDS011;11484;50.858;4.384;2023-08-12T02:19:05;9.25;;;4.50;;
22634;SDS011;11484;50.858;4.384;2023-08-12T02:21:31;10.00;;;4.80;;
22634;SDS011;11484;50.858;4.384;2023-08-12T02:23:57;9.40;;;4.72;;
22634;SDS011;11484;50.858;4.384;2023-08-12T02:26:23;10.73;;;4.90;;
22634;SDS011;11484;50.858;4.384;2023-08-12T02:28:48;9.25;;;5.10;;
22634;SDS011;11484;50.858;4.384;2023-08-12T02:31:15;10.35;;;5.30;;
22634;SDS011;11484;50.858;4.384;2023-08-12T02:33:42;10.38;;;5.32;;
22634;SDS011;11484;50.858;4.384;2023-08-12T02:36:08;8.35;;;4.75;;
22634;SDS011;11484;50.858;4.384;2023-08-12T02:38:34;7.85;;;4.68;;
22634;SDS011;11484;50.858;4.384;2023-08-12T02:41:00;8.27;;;5.20;;
22634;SDS011;11484;50.858;4.384;2023-08-12T02:43:25;8.63;;;5.10;;
22634;SDS011;11484;50.858;4.384;2023-08-12T02:45:51;8.98;;;5.20;;
22634;SDS011;11484;50.858;4.384;2023-08-12T02:48:17;9.50;;;5.63;;
22634;SDS011;11484;50.858;4.384;2023-08-12T02:50:43;7.03;;;4.60;;
22634;SDS011;11484;50.858;4.384;2023-08-12T02:53:08;8.45;;;5.05;;
22634;SDS011;11484;50.858;4.384;2023-08-12T02:55:34;9.20;;;5.10;;
22634;SDS011;11484;50.858;4.384;2023-08-12T02:58:00;7.22;;;4.70;;
22634;SDS011;11484;50.858;4.384;2023-08-12T03:00:26;8.82;;;5.05;;
22634;SDS011;11484;50.858;4.384;2023-08-12T03:02:53;7.00;;;5.03;;
22634;SDS011;11484;50.858;4.384;2023-08-12T03:05:19;9.38;;;4.85;;
22634;SDS011;11484;50.858;4.384;2023-08-12T03:07:45;10.50;;;6.05;;
22634;SDS011;11484;50.858;4.384;2023-08-12T03:10:10;9.07;;;4.97;;
22634;SDS011;11484;50.858;4.384;2023-08-12T03:12:37;11.63;;;5.40;;
22634;SDS011;11484;50.858;4.384;2023-08-12T03:15:03;9.60;;;5.65;;
22634;SDS011;11484;50.858;4.384;2023-08-12T03:17:31;11.43;;;5.40;;
22634;SDS011;11484;50.858;4.384;2023-08-12T03:19:57;12.32;;;5.90;;
22634;SDS011;11484;50.858;4.384;2023-08-12T03:22:29;11.70;;;6.05;;
22634;SDS011;11484;50.858;4.384;2023-08-12T03:24:54;12.30;;;6.60;;
22634;SDS011;11484;50.858;4.384;2023-08-12T03:27:23;10.93;;;6.68;;
22634;SDS011;11484;50.858;4.384;2023-08-12T03:29:49;14.68;;;8.00;;
22634;SDS011;11484;50.858;4.384;2023-08-12T03:32:14;10.52;;;7.13;;
22634;SDS011;11484;50.858;4.384;2023-08-12T03:34:40;10.00;;;6.93;;
22634;SDS011;11484;50.858;4.384;2023-08-12T03:37:06;13.60;;;7.20;;
22634;SDS011;11484;50.858;4.384;2023-08-12T03:39:32;10.70;;;7.32;;
22634;SDS011;11484;50.858;4.384;2023-08-12T03:41:58;8.88;;;7.35;;
22634;SDS011;11484;50.858;4.384;2023-08-12T03:44:23;11.43;;;7.60;;
22634;SDS011;11484;50.858;4.384;2023-08-12T03:46:49;13.82;;;7.22;;
22634;SDS011;11484;50.858;4.384;2023-08-12T03:49:15;10.05;;;6.18;;
22634;SDS011;11484;50.858;4.384;2023-08-12T03:51:40;9.32;;;6.55;;
22634;SDS011;11484;50.858;4.384;2023-08-12T03:54:06;10.13;;;6.68;;
22634;SDS011;11484;50.858;4.384;2023-08-12T03:56:32;8.38;;;6.15;;
22634;SDS011;11484;50.858;4.384;2023-08-12T03:58:57;7.63;;;4.97;;
22634;SDS011;11484;50.858;4.384;2023-08-12T04:01:23;6.85;;;5.20;;
22634;SDS011;11484;50.858;4.384;2023-08-12T04:03:49;8.18;;;5.28;;
22634;SDS011;11484;50.858;4.384;2023-08-12T04:06:15;8.10;;;5.05;;
22634;SDS011;11484;50.858;4.384;2023-08-12T04:08:40;10.82;;;5.78;;
22634;SDS011;11484;50.858;4.384;2023-08-12T04:11:06;7.00;;;5.38;;
22634;SDS011;11484;50.858;4.384;2023-08-12T04:13:32;6.35;;;4.97;;
22634;SDS011;11484;50.858;4.384;2023-08-12T04:15:57;6.43;;;4.75;;
22634;SDS011;11484;50.858;4.384;2023-08-12T04:18:23;7.50;;;5.07;;
22634;SDS011;11484;50.858;4.384;2023-08-12T04:20:49;7.85;;;5.10;;
22634;SDS011;11484;50.858;4.384;2023-08-12T04:23:15;7.63;;;5.22;;
22634;SDS011;11484;50.858;4.384;2023-08-12T04:25:45;7.75;;;5.07;;
22634;SDS011;11484;50.858;4.384;2023-08-12T04:28:12;6.07;;;4.72;;
22634;SDS011;11484;50.858;4.384;2023-08-12T04:30:42;5.97;;;4.25;;
22634;SDS011;11484;50.858;4.384;2023-08-12T04:33:08;7.35;;;5.72;;
22634;SDS011;11484;50.858;4.384;2023-08-12T04:35:34;5.00;;;4.50;;
22634;SDS011;11484;50.858;4.384;2023-08-12T04:38:00;5.07;;;4.15;;
22634;SDS011;11484;50.858;4.384;2023-08-12T04:40:26;5.32;;;4.60;;
22634;SDS011;11484;50.858;4.384;2023-08-12T04:42:52;5.00;;;4.10;;
22634;SDS011;11484;50.858;4.384;2023-08-12T04:45:18;4.10;;;3.65;;
22634;SDS011;11484;50.858;4.384;2023-08-12T04:47:43;4.88;;;4.22;;
22634;SDS011;11484;50.858;4.384;2023-08-12T04:50:09;4.97;;;4.30;;
22634;SDS011;11484;50.858;4.384;2023-08-12T04:52:35;4.85;;;4.00;;
22634;SDS011;11484;50.858;4.384;2023-08-12T04:55:01;5.45;;;3.40;;
22634;SDS011;11484;50.858;4.384;2023-08-12T04:57:28;4.28;;;3.80;;
22634;SDS011;11484;50.858;4.384;2023-08-12T04:59:53;4.32;;;3.70;;
22634;SDS011;11484;50.858;4.384;2023-08-12T05:02:20;9.02;;;4.65;;
22634;SDS011;11484;50.858;4.384;2023-08-12T05:04:49;4.63;;;3.67;;
22634;SDS011;11484;50.858;4.384;2023-08-12T05:07:16;4.20;;;3.40;;
22634;SDS011;11484;50.858;4.384;2023-08-12T05:09:42;4.72;;;3.90;;
22634;SDS011;11484;50.858;4.384;2023-08-12T05:12:11;4.90;;;4.40;;
22634;SDS011;11484;50.858;4.384;2023-08-12T05:14:37;5.30;;;4.78;;
22634;SDS011;11484;50.858;4.384;2023-08-12T05:17:04;6.40;;;4.68;;
22634;SDS011;11484;50.858;4.384;2023-08-12T05:19:30;5.75;;;5.25;;
22634;SDS011;11484;50.858;4.384;2023-08-12T05:21:56;6.05;;;5.05;;
22634;SDS011;11484;50.858;4.384;2023-08-12T05:24:21;5.93;;;4.90;;
22634;SDS011;11484;50.858;4.384;2023-08-12T05:26:47;6.20;;;5.45;;
22634;SDS011;11484;50.858;4.384;2023-08-12T05:29:13;7.18;;;5.85;;
22634;SDS011;11484;50.858;4.384;2023-08-12T05:31:38;7.15;;;5.80;;
22634;SDS011;11484;50.858;4.384;2023-08-12T05:34:04;5.88;;;5.28;;
22634;SDS011;11484;50.858;4.384;2023-08-12T05:36:31;6.32;;;5.63;;
22634;SDS011;11484;50.858;4.384;2023-08-12T05:38:56;6.00;;;5.40;;
22634;SDS011;11484;50.858;4.384;2023-08-12T05:41:22;6.03;;;5.43;;
22634;SDS011;11484;50.858;4.384;2023-08-12T05:43:48;7.47;;;5.90;;
22634;SDS011;11484;50.858;4.384;2023-08-12T05:46:14;6.18;;;5.57;;
22634;SDS011;11484;50.858;4.384;2023-08-12T05:48:39;6.20;;;4.97;;
22634;SDS011;11484;50.858;4.384;2023-08-12T05:51:05;6.68;;;5.80;;
22634;SDS011;11484;50.858;4.384;2023-08-12T05:53:31;6.43;;;5.78;;
22634;SDS011;11484;50.858;4.384;2023-08-12T05:55:58;6.07;;;5.43;;
22634;SDS011;11484;50.858;4.384;2023-08-12T05:58:23;5.57;;;4.85;;
22634;SDS011;11484;50.858;4.384;2023-08-12T06:00:49;6.32;;;5.57;;
22634;SDS011;11484;50.858;4.384;2023-08-12T06:03:15;7.07;;;5.78;;
22634;SDS011;11484;50.858;4.384;2023-08-12T06:05:42;6.03;;;4.45;;
22634;SDS011;11484;50.858;4.384;2023-08-12T06:08:10;7.10;;;5.72;;
22634;SDS011;11484;50.858;4.384;2023-08-12T06:10:36;7.40;;;5.82;;
22634;SDS011;11484;50.858;4.384;2023-08-12T06:13:01;4.90;;;4.40;;
22634;SDS011;11484;50.858;4.384;2023-08-12T06:15:27;6.45;;;5.55;;
22634;SDS011;11484;50.858;4.384;2023-08-12T06:17:53;5.38;;;4.30;;
22634;SDS011;11484;50.858;4.384;2023-08-12T06:20:18;5.28;;;4.30;;
22634;SDS011;11484;50.858;4.384;2023-08-12T06:22:44;7.25;;;5.63;;
22634;SDS011;11484;50.858;4.384;2023-08-12T06:25:10;6.55;;;4.60;;
22634;SDS011;11484;50.858;4.384;2023-08-12T06:27:35;6.43;;;4.57;;
22634;SDS011;11484;50.858;4.384;2023-08-12T06:30:01;5.50;;;3.97;;
22634;SDS011;11484;50.858;4.384;2023-08-12T06:32:27;4.93;;;4.38;;
22634;SDS011;11484;50.858;4.384;2023-08-12T06:34:53;5.03;;;4.50;;
22634;SDS011;11484;50.858;4.384;2023-08-12T06:37:19;4.60;;;4.15;;
22634;SDS011;11484;50.858;4.384;2023-08-12T06:39:44;5.47;;;4.20;;
22634;SDS011;11484;50.858;4.384;2023-08-12T06:42:10;5.68;;;4.57;;
22634;SDS011;11484;50.858;4.384;2023-08-12T06:44:35;5.30;;;4.80;;
22634;SDS011;11484;50.858;4.384;2023-08-12T06:47:01;5.82;;;4.97;;
22634;SDS011;11484;50.858;4.384;2023-08-12T06:49:27;5.30;;;4.68;;
22634;SDS011;11484;50.858;4.384;2023-08-12T06:51:52;5.13;;;4.57;;
22634;SDS011;11484;50.858;4.384;2023-08-12T06:54:18;4.18;;;3.60;;
22634;SDS011;11484;50.858;4.384;2023-08-12T06:56:44;4.88;;;3.58;;
22634;SDS011;11484;50.858;4.384;2023-08-12T06:59:09;5.32;;;3.50;;
22634;SDS011;11484;50.858;4.384;2023-08-12T07:01:36;3.50;;;2.95;;
22634;SDS011;11484;50.858;4.384;2023-08-12T07:04:02;3.40;;;3.05;;
22634;SDS011;11484;50.858;4.384;2023-08-12T07:06:28;3.70;;;3.00;;
22634;SDS011;11484;50.858;4.384;2023-08-12T07:08:53;3.80;;;2.30;;
22634;SDS011;11484;50.858;4.384;2023-08-12T07:11:19;3.83;;;2.88;;
22634;SDS011;11484;50.858;4.384;2023-08-12T07:13:44;4.50;;;3.72;;
22634;SDS011;11484;50.858;4.384;2023-08-12T07:16:11;6.43;;;5.82;;
22634;SDS011;11484;50.858;4.384;2023-08-12T07:18:37;8.90;;;8.00;;
22634;SDS011;11484;50.858;4.384;2023-08-12T07:21:03;9.88;;;8.07;;
22634;SDS011;11484;50.858;4.384;2023-08-12T07:23:29;8.85;;;7.95;;
22634;SDS011;11484;50.858;4.384;2023-08-12T07:25:54;8.25;;;7.32;;
22634;SDS011;11484;50.858;4.384;2023-08-12T07:28:20;8.38;;;6.97;;
22634;SDS011;11484;50.858;4.384;2023-08-12T07:30:47;9.68;;;7.47;;
22634;SDS011;11484;50.858;4.384;2023-08-12T07:33:14;8.63;;;7.82;;
22634;SDS011;11484;50.858;4.384;2023-08-12T07:35:39;8.25;;;7.45;;
22634;SDS011;11484;50.858;4.384;2023-08-12T07:38:06;8.45;;;7.55;;
22634;SDS011;11484;50.858;4.384;2023-08-12T07:40:32;9.23;;;7.18;;
22634;SDS011;11484;50.858;4.384;2023-08-12T07:42:57;10.38;;;8.25;;
22634;SDS011;11484;50.858;4.384;2023-08-12T07:45:23;9.05;;;8.15;;
22634;SDS011;11484;50.858;4.384;2023-08-12T07:47:49;10.40;;;8.43;;
22634;SDS011;11484;50.858;4.384;2023-08-12T07:50:15;10.98;;;9.80;;
22634;SDS011;11484;50.858;4.384;2023-08-12T07:52:41;10.27;;;9.25;;
22634;SDS011;11484;50.858;4.384;2023-08-12T07:55:07;12.80;;;11.50;;
22634;SDS011;11484;50.858;4.384;2023-08-12T07:57:33;11.55;;;10.35;;
22634;SDS011;11484;50.858;4.384;2023-08-12T07:59:59;11.48;;;10.27;;
22634;SDS011;11484;50.858;4.384;2023-08-12T08:02:24;11.05;;;9.95;;
22634;SDS011;11484;50.858;4.384;2023-08-12T08:04:50;13.13;;;9.75;;
22634;SDS011;11484;50.858;4.384;2023-08-12T08:07:16;11.45;;;9.63;;
22634;SDS011;11484;50.858;4.384;2023-08-12T08:09:43;9.57;;;8.68;;
22634;SDS011;11484;50.858;4.384;2023-08-12T08:12:09;8.88;;;7.93;;
22634;SDS011;11484;50.858;4.384;2023-08-12T08:14:36;8.25;;;7.07;;
22634;SDS011;11484;50.858;4.384;2023-08-12T08:17:02;8.68;;;7.72;;
22634;SDS011;11484;50.858;4.384;2023-08-12T08:19:28;8.38;;;7.45;;
22634;SDS011;11484;50.858;4.384;2023-08-12T08:21:54;9.10;;;8.20;;
22634;SDS011;11484;50.858;4.384;2023-08-12T08:24:20;8.40;;;7.60;;
22634;SDS011;11484;50.858;4.384;2023-08-12T08:26:46;8.15;;;7.35;;
22634;SDS011;11484;50.858;4.384;2023-08-12T08:29:12;6.68;;;5.95;;
22634;SDS011;11484;50.858;4.384;2023-08-12T08:31:38;7.00;;;6.28;;
22634;SDS011;11484;50.858;4.384;2023-08-12T08:34:04;6.97;;;6.28;;
22634;SDS011;11484;50.858;4.384;2023-08-12T08:36:31;5.85;;;4.93;;
22634;SDS011;11484;50.858;4.384;2023-08-12T08:38:57;6.63;;;5.30;;
22634;SDS011;11484;50.858;4.384;2023-08-12T08:41:23;5.68;;;5.10;;
22634;SDS011;11484;50.858;4.384;2023-08-12T08:43:49;7.03;;;4.70;;
22634;SDS011;11484;50.858;4.384;2023-08-12T08:46:18;5.97;;;5.10;;
22634;SDS011;11484;50.858;4.384;2023-08-12T08:48:44;6.82;;;5.25;;
22634;SDS011;11484;50.858;4.384;2023-08-12T08:51:11;5.30;;;4.75;;
22634;SDS011;11484;50.858;4.384;2023-08-12T08:53:38;7.03;;;5.45;;
22634;SDS011;11484;50.858;4.384;2023-08-12T08:56:05;4.75;;;3.30;;
22634;SDS011;11484;50.858;4.384;2023-08-12T08:58:32;4.13;;;3.08;;
22634;SDS011;11484;50.858;4.384;2023-08-12T09:00:58;6.95;;;3.55;;
22634;SDS011;11484;50.858;4.384;2023-08-12T09:03:25;3.75;;;2.63;;
22634;SDS011;11484;50.858;4.384;2023-08-12T09:05:52;4.43;;;2.70;;
22634;SDS011;11484;50.858;4.384;2023-08-12T09:08:20;5.85;;;3.17;;
22634;SDS011;11484;50.858;4.384;2023-08-12T09:10:47;3.00;;;2.40;;
22634;SDS011;11484;50.858;4.384;2023-08-12T09:13:13;4.03;;;2.60;;
22634;SDS011;11484;50.858;4.384;2023-08-12T09:15:40;4.70;;;2.50;;
22634;SDS011;11484;50.858;4.384;2023-08-12T09:18:09;7.45;;;2.88;;
22634;SDS011;11484;50.858;4.384;2023-08-12T09:20:34;4.45;;;2.63;;
22634;SDS011;11484;50.858;4.384;2023-08-12T09:23:01;5.20;;;2.22;;
22634;SDS011;11484;50.858;4.384;2023-08-12T09:25:27;3.22;;;1.75;;
22634;SDS011;11484;50.858;4.384;2023-08-12T09:27:55;4.63;;;2.10;;
22634;SDS011;11484;50.858;4.384;2023-08-12T09:30:23;4.22;;;2.00;;
22634;SDS011;11484;50.858;4.384;2023-08-12T09:32:59;4.50;;;2.65;;
22634;SDS011;11484;50.858;4.384;2023-08-12T09:35:31;5.30;;;2.47;;
22634;SDS011;11484;50.858;4.384;2023-08-12T09:38:10;6.30;;;2.10;;
22634;SDS011;11484;50.858;4.384;2023-08-12T09:40:37;3.10;;;1.77;;
22634;SDS011;11484;50.858;4.384;2023-08-12T09:43:03;5.00;;;1.80;;
22634;SDS011;11484;50.858;4.384;2023-08-12T09:45:30;5.32;;;1.88;;
22634;SDS011;11484;50.858;4.384;2023-08-12T09:47:56;3.30;;;1.75;;
22634;SDS011;11484;50.858;4.384;2023-08-12T09:50:23;5.53;;;1.70;;
22634;SDS011;11484;50.858;4.384;2023-08-12T09:52:50;4.13;;;1.42;;
22634;SDS011;11484;50.858;4.384;2023-08-12T09:55:17;3.70;;;1.40;;
22634;SDS011;11484;50.858;4.384;2023-08-12T09:57:44;2.53;;;1.35;;
22634;SDS011;11484;50.858;4.384;2023-08-12T10:00:13;3.42;;;1.25;;
22634;SDS011;11484;50.858;4.384;2023-08-12T10:02:45;2.58;;;1.20;;
22634;SDS011;11484;50.858;4.384;2023-08-12T10:05:12;3.00;;;1.30;;
22634;SDS011;11484;50.858;4.384;2023-08-12T10:07:43;3.70;;;1.23;;
22634;SDS011;11484;50.858;4.384;2023-08-12T10:10:10;4.45;;;1.50;;
22634;SDS011;11484;50.858;4.384;2023-08-12T10:12:38;5.07;;;1.60;;
22634;SDS011;11484;50.858;4.384;2023-08-12T10:15:07;3.60;;;1.60;;
22634;SDS011;11484;50.858;4.384;2023-08-12T10:17:34;3.58;;;1.00;;
22634;SDS011;11484;50.858;4.384;2023-08-12T10:20:03;3.75;;;1.02;;
22634;SDS011;11484;50.858;4.384;2023-08-12T10:22:32;2.55;;;1.00;;
22634;SDS011;11484;50.858;4.384;2023-08-12T10:25:00;4.70;;;1.92;;
22634;SDS011;11484;50.858;4.384;2023-08-12T10:27:27;3.25;;;1.60;;
22634;SDS011;11484;50.858;4.384;2023-08-12T10:29:55;5.75;;;1.60;;
22634;SDS011;11484;50.858;4.384;2023-08-12T10:32:24;2.95;;;1.10;;
22634;SDS011;11484;50.858;4.384;2023-08-12T10:34:55;4.57;;;1.38;;
22634;SDS011;11484;50.858;4.384;2023-08-12T10:37:22;2.75;;;1.27;;
22634;SDS011;11484;50.858;4.384;2023-08-12T10:39:55;4.47;;;1.73;;
22634;SDS011;11484;50.858;4.384;2023-08-12T10:45:09;5.15;;;1.25;;
22634;SDS011;11484;50.858;4.384;2023-08-12T10:50:19;4.38;;;1.40;;
22634;SDS011;11484;50.858;4.384;2023-08-12T10:52:46;3.35;;;1.13;;
22634;SDS011;11484;50.858;4.384;2023-08-12T10:55:22;5.80;;;1.90;;
22634;SDS011;11484;50.858;4.384;2023-08-12T10:57:49;7.15;;;3.80;;
22634;SDS011;11484;50.858;4.384;2023-08-12T11:00:17;5.35;;;1.67;;
22634;SDS011;11484;50.858;4.384;2023-08-12T11:02:54;3.67;;;1.30;;
22634;SDS011;11484;50.858;4.384;2023-08-12T11:05:21;4.82;;;1.48;;
22634;SDS011;11484;50.858;4.384;2023-08-12T11:07:48;5.20;;;1.60;;
22634;SDS011;11484;50.858;4.384;2023-08-12T11:10:24;2.80;;;1.27;;
22634;SDS011;11484;50.858;4.384;2023-08-12T11:15:17;2.83;;;1.40;;
22634;SDS011;11484;50.858;4.384;2023-08-12T11:17:50;9.45;;;2.03;;
22634;SDS011;11484;50.858;4.384;2023-08-12T11:20:16;4.53;;;1.30;;
22634;SDS011;11484;50.858;4.384;2023-08-12T11:22:43;4.30;;;1.10;;
22634;SDS011;11484;50.858;4.384;2023-08-12T11:25:10;3.42;;;1.17;;
22634;SDS011;11484;50.858;4.384;2023-08-12T11:30:07;4.88;;;1.25;;
22634;SDS011;11484;50.858;4.384;2023-08-12T11:32:33;5.45;;;1.30;;
22634;SDS011;11484;50.858;4.384;2023-08-12T11:34:59;4.10;;;1.52;;
22634;SDS011;11484;50.858;4.384;2023-08-12T11:37:25;4.47;;;1.50;;
22634;SDS011;11484;50.858;4.384;2023-08-12T11:39:52;7.28;;;1.35;;
22634;SDS011;11484;50.858;4.384;2023-08-12T11:42:17;4.03;;;1.10;;
22634;SDS011;11484;50.858;4.384;2023-08-12T11:44:43;5.28;;;1.48;;
22634;SDS011;11484;50.858;4.384;2023-08-12T11:47:09;2.63;;;0.90;;
22634;SDS011;11484;50.858;4.384;2023-08-12T11:49:34;4.60;;;1.10;;
22634;SDS011;11484;50.858;4.384;2023-08-12T11:52:00;4.53;;;1.42;;
22634;SDS011;11484;50.858;4.384;2023-08-12T11:54:26;2.75;;;0.82;;
22634;SDS011;11484;50.858;4.384;2023-08-12T11:56:52;3.47;;;1.20;;
22634;SDS011;11484;50.858;4.384;2023-08-12T11:59:20;3.92;;;1.13;;
22634;SDS011;11484;50.858;4.384;2023-08-12T12:01:48;2.20;;;1.08;;
22634;SDS011;11484;50.858;4.384;2023-08-12T12:04:17;4.10;;;1.10;;
22634;SDS011;11484;50.858;4.384;2023-08-12T12:06:46;4.80;;;1.70;;
22634;SDS011;11484;50.858;4.384;2023-08-12T12:09:13;1.85;;;0.90;;
22634;SDS011;11484;50.858;4.384;2023-08-12T12:11:41;5.15;;;2.17;;
22634;SDS011;11484;50.858;4.384;2023-08-12T12:14:07;3.13;;;1.30;;
22634;SDS011;11484;50.858;4.384;2023-08-12T12:16:37;5.82;;;1.13;;
22634;SDS011;11484;50.858;4.384;2023-08-12T12:19:18;3.28;;;1.00;;
22634;SDS011;11484;50.858;4.384;2023-08-12T12:21:45;3.47;;;0.90;;
22634;SDS011;11484;50.858;4.384;2023-08-12T12:24:13;5.03;;;1.40;;
22634;SDS011;11484;50.858;4.384;2023-08-12T12:26:39;2.90;;;0.93;;
22634;SDS011;11484;50.858;4.384;2023-08-12T12:29:05;3.38;;;1.17;;
22634;SDS011;11484;50.858;4.384;2023-08-12T12:31:31;5.88;;;1.58;;
22634;SDS011;11484;50.858;4.384;2023-08-12T12:33:58;4.13;;;1.42;;
22634;SDS011;11484;50.858;4.384;2023-08-12T12:36:24;5.68;;;1.30;;
22634;SDS011;11484;50.858;4.384;2023-08-12T12:38:50;3.75;;;1.33;;
22634;SDS011;11484;50.858;4.384;2023-08-12T12:41:16;3.78;;;1.20;;
22634;SDS011;11484;50.858;4.384;2023-08-12T12:43:42;4.30;;;1.13;;
22634;SDS011;11484;50.858;4.384;2023-08-12T12:46:08;3.28;;;1.30;;
22634;SDS011;11484;50.858;4.384;2023-08-12T12:48:33;4.80;;;1.85;;
22634;SDS011;11484;50.858;4.384;2023-08-12T12:50:59;6.15;;;2.30;;
22634;SDS011;11484;50.858;4.384;2023-08-12T12:53:25;5.40;;;1.25;;
22634;SDS011;11484;50.858;4.384;2023-08-12T12:55:50;4.90;;;1.88;;
22634;SDS011;11484;50.858;4.384;2023-08-12T12:58:16;4.95;;;1.52;;
22634;SDS011;11484;50.858;4.384;2023-08-12T13:00:42;3.78;;;1.92;;
22634;SDS011;11484;50.858;4.384;2023-08-12T13:03:08;4.68;;;1.88;;
22634;SDS011;11484;50.858;4.384;2023-08-12T13:05:34;5.22;;;2.15;;
22634;SDS011;11484;50.858;4.384;2023-08-12T13:08:00;6.57;;;2.42;;
22634;SDS011;11484;50.858;4.384;2023-08-12T13:10:25;5.85;;;1.98;;
22634;SDS011;11484;50.858;4.384;2023-08-12T13:12:51;5.38;;;2.63;;
22634;SDS011;11484;50.858;4.384;2023-08-12T13:15:17;5.93;;;2.40;;
22634;SDS011;11484;50.858;4.384;2023-08-12T13:17:42;5.78;;;2.60;;
22634;SDS011;11484;50.858;4.384;2023-08-12T13:20:08;6.57;;;3.28;;
22634;SDS011;11484;50.858;4.384;2023-08-12T13:22:34;6.53;;;3.03;;
22634;SDS011;11484;50.858;4.384;2023-08-12T13:25:00;7.00;;;2.90;;
22634;SDS011;11484;50.858;4.384;2023-08-12T13:27:26;5.53;;;3.13;;
22634;SDS011;11484;50.858;4.384;2023-08-12T13:29:52;3.95;;;2.10;;
22634;SDS011;11484;50.858;4.384;2023-08-12T13:32:18;4.10;;;2.17;;
22634;SDS011;11484;50.858;4.384;2023-08-12T13:34:44;3.95;;;2.28;;
22634;SDS011;11484;50.858;4.384;2023-08-12T13:37:11;6.05;;;2.47;;
22634;SDS011;11484;50.858;4.384;2023-08-12T13:39:37;5.40;;;2.22;;
22634;SDS011;11484;50.858;4.384;2023-08-12T13:42:03;11.73;;;6.32;;
22634;SDS011;11484;50.858;4.384;2023-08-12T13:44:29;23.83;;;14.23;;
22634;SDS011;11484;50.858;4.384;2023-08-12T13:46:55;22.33;;;12.30;;
22634;SDS011;11484;50.858;4.384;2023-08-12T13:49:21;12.23;;;7.43;;
22634;SDS011;11484;50.858;4.384;2023-08-12T13:51:46;9.35;;;5.47;;
22634;SDS011;11484;50.858;4.384;2023-08-12T13:54:12;8.93;;;4.50;;
22634;SDS011;11484;50.858;4.384;2023-08-12T13:56:38;9.88;;;5.30;;
22634;SDS011;11484;50.858;4.384;2023-08-12T13:59:03;9.55;;;4.43;;
22634;SDS011;11484;50.858;4.384;2023-08-12T14:01:29;14.80;;;8.98;;
22634;SDS011;11484;50.858;4.384;2023-08-12T14:03:55;10.43;;;6.35;;
22634;SDS011;11484;50.858;4.384;2023-08-12T14:06:20;9.35;;;4.43;;
22634;SDS011;11484;50.858;4.384;2023-08-12T14:08:46;11.20;;;6.13;;
22634;SDS011;11484;50.858;4.384;2023-08-12T14:11:12;9.63;;;4.05;;
22634;SDS011;11484;50.858;4.384;2023-08-12T14:13:37;10.63;;;5.50;;
22634;SDS011;11484;50.858;4.384;2023-08-12T14:16:03;8.45;;;3.75;;
22634;SDS011;11484;50.858;4.384;2023-08-12T14:18:29;9.32;;;4.57;;
22634;SDS011;11484;50.858;4.384;2023-08-12T14:20:54;8.25;;;3.53;;
22634;SDS011;11484;50.858;4.384;2023-08-12T14:23:20;7.75;;;4.72;;
22634;SDS011;11484;50.858;4.384;2023-08-12T14:25:46;6.50;;;2.92;;
22634;SDS011;11484;50.858;4.384;2023-08-12T14:28:11;9.10;;;3.15;;
22634;SDS011;11484;50.858;4.384;2023-08-12T14:30:37;13.10;;;6.40;;
22634;SDS011;11484;50.858;4.384;2023-08-12T14:33:03;9.27;;;4.60;;
22634;SDS011;11484;50.858;4.384;2023-08-12T14:35:28;12.00;;;5.50;;
22634;SDS011;11484;50.858;4.384;2023-08-12T14:37:54;9.65;;;4.47;;
22634;SDS011;11484;50.858;4.384;2023-08-12T14:40:20;10.98;;;6.20;;
22634;SDS011;11484;50.858;4.384;2023-08-12T14:42:46;9.77;;;5.43;;
22634;SDS011;11484;50.858;4.384;2023-08-12T14:45:11;13.00;;;8.02;;
22634;SDS011;11484;50.858;4.384;2023-08-12T14:47:37;10.75;;;5.78;;
22634;SDS011;11484;50.858;4.384;2023-08-12T14:50:03;12.05;;;7.82;;
22634;SDS011;11484;50.858;4.384;2023-08-12T14:52:29;11.52;;;7.55;;
22634;SDS011;11484;50.858;4.384;2023-08-12T14:54:55;14.13;;;5.45;;
22634;SDS011;11484;50.858;4.384;2023-08-12T14:57:20;11.07;;;4.55;;